»·PEaware :: AAL23 KPHX-KSNA

AAL23 :: KPHX-KSNA

FLIGHT INFORMATION

Flight Status: Arrived
Operator:
American Airlines
More flights by this operator :: More flights under this callsign
Pilot: Luke Ormsby (6875)
Aircraft: BOEING 737-800
(B738)
More flights by this aircraft type
Origin: KPHX Phoenix Sky Harbor Intl
United States
Destination: KSNA John Wayne-Orange Co
United States
More flights between these airports :: More routes between these airports
Route: +IZZZO6 HRRBR EMLLD DSNEE1
File this flight plan on PilotEdge
Remarks:
Altitude:
(Current/Filed)
32,000ft
Speed:
(Current/Filed)
300kts
Departed: 09-Aug-17 08:56 PM
Arrived: 09-Aug-17 09:55 PM
Distance/Time
Traveled:
293nm/0:59
Distance/Time
To Go:
Arrived

Flight Plot

Page will automatically refresh every two minutes.

Flight plan parsing failed; only flown route is shown


Map Options




Map Legend


Flown Route
Filed Route
Departure Airport
Arrival Airport
Navaid (VOR, NDB)
Fix

Horizontal Profiles

Position Reports

Time Latitude Longitude Heading Altitude Ground
Speed
09-Aug-17 20:34 33.436861 -112.002494 90 1142ft 0kts
09-Aug-17 20:36 33.437605 -112.002469 90 1142ft 0kts
09-Aug-17 20:37 33.437605 -112.002469 90 1142ft 0kts
09-Aug-17 20:38 33.437605 -112.002469 90 1142ft 0kts
09-Aug-17 20:39 33.437605 -112.002469 90 1142ft 0kts
09-Aug-17 20:40 33.437605 -112.002469 90 1142ft 0kts
09-Aug-17 20:41 33.437605 -112.002469 90 1143ft 0kts
09-Aug-17 20:42 33.437605 -112.002469 90 1143ft 0kts
09-Aug-17 20:43 33.437605 -112.002469 90 1143ft 0kts
09-Aug-17 20:44 33.437605 -112.002469 90 1143ft 0kts
09-Aug-17 20:45 33.437605 -112.002469 90 1143ft 0kts
09-Aug-17 20:46 33.437605 -112.002469 90 1143ft 0kts
09-Aug-17 20:47 33.437605 -112.002469 90 1143ft 0kts
09-Aug-17 20:48 33.437606 -112.002886 90 1143ft 2kts
09-Aug-17 20:49 33.437607 -112.003488 85 1143ft 0kts
09-Aug-17 20:50 33.437607 -112.003488 85 1143ft 0kts
09-Aug-17 20:51 33.437608 -112.003470 85 1143ft 0kts
09-Aug-17 20:52 33.438779 -112.003006 16 1143ft 7kts
09-Aug-17 20:53 33.439754 -111.999223 90 1143ft 17kts
09-Aug-17 20:54 33.439723 -111.994891 89 1143ft 11kts
09-Aug-17 20:55 33.439778 -111.991239 61 1143ft 0kts
09-Aug-17 20:56 33.439779 -111.991238 61 1143ft 0kts
09-Aug-17 20:57 33.439779 -111.991237 61 1143ft 0kts
09-Aug-17 20:58 33.440787 -111.991387 271 1143ft 10kts
09-Aug-17 20:59 33.440605 -112.036820 269 2335ft 206kts
09-Aug-17 21:00 33.449466 -112.103237 291 5142ft 230kts
09-Aug-17 21:01 33.449806 -112.186664 265 7206ft 276kts
09-Aug-17 21:02 33.446424 -112.282630 269 10185ft 296kts
09-Aug-17 21:03 33.447128 -112.390556 270 11957ft 356kts
09-Aug-17 21:04 33.448785 -112.511117 270 14824ft 368kts
09-Aug-17 21:05 33.450678 -112.635912 269 17479ft 379kts
09-Aug-17 21:06 33.452330 -112.764183 269 19796ft 392kts
09-Aug-17 21:07 33.470288 -112.895627 280 21827ft 407kts
09-Aug-17 21:08 33.495415 -113.029555 280 23637ft 418kts
09-Aug-17 21:09 33.516356 -113.142330 280 25057ft 424kts
09-Aug-17 21:10 33.542481 -113.281804 279 26623ft 431kts
09-Aug-17 21:11 33.568258 -113.423205 279 28045ft 438kts
09-Aug-17 21:12 33.594273 -113.564297 279 29972ft 429kts
09-Aug-17 21:13 33.620124 -113.703102 278 31744ft 424kts
09-Aug-17 21:14 33.645483 -113.840912 278 31863ft 419kts
09-Aug-17 21:15 33.670587 -113.977863 278 31855ft 419kts
09-Aug-17 21:16 33.733940 -114.096679 297 31842ft 431kts
09-Aug-17 21:17 33.767879 -114.230072 274 31834ft 417kts
09-Aug-17 21:18 33.783863 -114.368540 273 31826ft 417kts
09-Aug-17 21:19 33.799673 -114.506708 273 31814ft 418kts
09-Aug-17 21:20 33.815967 -114.644968 273 31814ft 418kts
09-Aug-17 21:21 33.831663 -114.784099 273 31662ft 418kts
09-Aug-17 21:22 33.846858 -114.920506 274 30661ft 408kts
09-Aug-17 21:23 33.861789 -115.055504 273 29831ft 404kts
09-Aug-17 21:24 33.876414 -115.189464 273 29834ft 404kts
09-Aug-17 21:25 33.891320 -115.323378 274 29843ft 404kts
09-Aug-17 21:26 33.905938 -115.457767 273 29853ft 404kts
09-Aug-17 21:27 33.920136 -115.591740 273 29861ft 403kts
09-Aug-17 21:28 33.931870 -115.725703 271 29783ft 403kts
09-Aug-17 21:29 33.941236 -115.859456 271 28780ft 397kts
09-Aug-17 21:30 33.950463 -115.990937 271 27780ft 392kts
09-Aug-17 21:31 33.959290 -116.121279 271 26765ft 386kts
09-Aug-17 21:32 33.959698 -116.247431 259 25077ft 371kts
09-Aug-17 21:33 33.944300 -116.368881 259 23362ft 363kts
09-Aug-17 21:34 33.929382 -116.489256 259 21647ft 361kts
09-Aug-17 21:35 33.914400 -116.607891 259 19707ft 362kts
09-Aug-17 21:36 33.898811 -116.727996 259 17472ft 364kts
09-Aug-17 21:37 33.885099 -116.848371 261 15395ft 361kts
09-Aug-17 21:38 33.872013 -116.967612 261 13284ft 358kts
09-Aug-17 21:39 33.859272 -117.083204 261 11947ft 336kts
09-Aug-17 21:40 33.847327 -117.191294 261 10775ft 317kts
09-Aug-17 21:41 33.835793 -117.293203 261 10024ft 291kts
09-Aug-17 21:42 33.825544 -117.382878 261 9667ft 258kts
09-Aug-17 21:43 33.826486 -117.468393 281 8509ft 257kts
09-Aug-17 21:44 33.841074 -117.551513 281 7544ft 252kts
09-Aug-17 21:45 33.855242 -117.632659 281 6585ft 242kts
09-Aug-17 21:46 33.868753 -117.710150 281 5589ft 234kts
09-Aug-17 21:47 33.879159 -117.786135 253 4555ft 229kts
09-Aug-17 21:48 33.826563 -117.824345 200 3584ft 226kts
09-Aug-17 21:49 33.760844 -117.823829 188 1740ft 250kts
09-Aug-17 21:50 33.704008 -117.851070 207 944ft 191kts
09-Aug-17 21:51 33.661282 -117.883390 225 2317ft 142kts
09-Aug-17 21:52 33.665888 -117.937738 290 1521ft 178kts
09-Aug-17 21:53 33.699959 -117.960973 15 971ft 162kts
09-Aug-17 21:54 33.737811 -117.937905 24 1025ft 136kts
09-Aug-17 21:55 33.751084 -117.896222 131 946ft 178kts
09-Aug-17 21:56 33.715886 -117.861013 154 835ft 145kts
09-Aug-17 21:57 33.679798 -117.866277 207 67ft 127kts
09-Aug-17 21:58 33.667586 -117.873001 115 64ft 0kts
09-Aug-17 21:59 33.667931 -117.872135 36 64ft 7kts
09-Aug-17 22:00 33.669293 -117.870783 40 64ft 16kts

Navigation Log

Ident Type
Flight plan parsing failed, navigation log unavailable